createdAt,value
2018-04-22T00:00:29.219Z,14.54
2018-04-22T00:01:29.205Z,14.53
2018-04-22T00:02:29.433Z,14.41
2018-04-22T00:03:29.430Z,14.36
2018-04-22T00:04:29.213Z,14.35
2018-04-22T00:05:29.215Z,14.37
2018-04-22T00:06:29.222Z,14.28
2018-04-22T00:07:29.403Z,14.25
2018-04-22T00:08:29.217Z,14.33
2018-04-22T00:09:29.414Z,14.32
2018-04-22T00:10:29.217Z,14.28
2018-04-22T00:11:29.207Z,14.20
2018-04-22T00:12:29.221Z,14.18
2018-04-22T00:13:29.208Z,14.11
2018-04-22T00:14:29.399Z,14.25
2018-04-22T00:15:29.405Z,14.17
2018-04-22T00:16:29.396Z,14.14
2018-04-22T00:17:29.193Z,14.17
2018-04-22T00:18:29.204Z,14.14
2018-04-22T00:19:29.201Z,14.14
2018-04-22T00:20:29.191Z,14.08
2018-04-22T00:21:29.198Z,14.14
2018-04-22T00:22:29.405Z,14.14
2018-04-22T00:23:29.197Z,14.12
2018-04-22T00:24:29.200Z,14.05
2018-04-22T00:25:29.187Z,13.99
2018-04-22T00:26:29.399Z,14.03
2018-04-22T00:27:29.195Z,13.95
2018-04-22T00:28:29.197Z,13.83
2018-04-22T00:29:29.197Z,13.93
2018-04-22T00:30:29.203Z,13.78
2018-04-22T00:31:29.178Z,13.72
2018-04-22T00:32:29.194Z,13.65
2018-04-22T00:33:29.191Z,13.56
2018-04-22T00:34:29.189Z,13.53
2018-04-22T00:35:29.391Z,13.42
2018-04-22T00:36:29.177Z,13.42
2018-04-22T00:37:29.186Z,13.46
2018-04-22T00:38:29.183Z,13.41
2018-04-22T00:39:29.174Z,13.38
2018-04-22T00:40:29.185Z,13.41
2018-04-22T00:41:29.189Z,13.44
2018-04-22T00:42:29.384Z,13.56
2018-04-22T00:43:29.414Z,13.60
2018-04-22T00:44:29.173Z,13.63
2018-04-22T00:45:29.382Z,13.74
2018-04-22T00:46:29.370Z,13.77
2018-04-22T00:47:29.186Z,13.78
2018-04-22T00:48:29.369Z,13.71
2018-04-22T00:49:29.381Z,13.65
2018-04-22T00:50:29.162Z,13.62
2018-04-22T00:51:29.180Z,13.57
2018-04-22T00:52:29.164Z,13.47
2018-04-22T00:53:29.164Z,13.35
2018-04-22T00:54:29.171Z,13.44
2018-04-22T00:55:29.159Z,13.35
2018-04-22T00:56:29.187Z,13.35
2018-04-22T00:57:29.170Z,13.35
2018-04-22T00:58:29.175Z,13.42
2018-04-22T00:59:29.364Z,13.47
2018-04-22T01:00:29.370Z,13.54
2018-04-22T01:01:29.356Z,13.53
2018-04-22T01:02:29.152Z,13.62
2018-04-22T01:03:29.364Z,13.59
2018-04-22T01:04:29.357Z,13.63
2018-04-22T01:05:29.148Z,13.78
2018-04-22T01:06:29.350Z,13.65
2018-04-22T01:07:29.157Z,13.63
2018-04-22T01:08:29.382Z,13.63
2018-04-22T01:09:29.146Z,13.56
2018-04-22T01:10:29.144Z,13.67
2018-04-22T01:11:29.347Z,13.78
2018-04-22T01:12:29.157Z,13.79
2018-04-22T01:13:29.139Z,13.77
2018-04-22T01:14:29.342Z,13.77
2018-04-22T01:15:29.137Z,13.79
2018-04-22T01:16:29.148Z,13.90
2018-04-22T01:17:29.144Z,13.92
2018-04-22T01:18:29.336Z,13.92
2018-04-22T01:19:29.347Z,13.97
2018-04-22T01:20:29.132Z,13.89
2018-04-22T01:21:29.142Z,13.89
2018-04-22T01:22:29.335Z,13.96
2018-04-22T01:23:29.333Z,13.93
2018-04-22T01:24:29.139Z,13.93
2018-04-22T01:25:29.129Z,14.04
2018-04-22T01:26:29.144Z,13.97
2018-04-22T01:27:29.143Z,14.12
2018-04-22T01:28:29.137Z,14.11
2018-04-22T01:29:29.126Z,14.05
2018-04-22T01:30:29.353Z,14.10
2018-04-22T01:31:29.147Z,14.03
2018-04-22T01:32:29.152Z,13.97
2018-04-22T01:33:29.136Z,13.87
2018-04-22T01:34:29.124Z,13.85
2018-04-22T01:35:29.130Z,13.93
2018-04-22T01:36:29.124Z,13.79
2018-04-22T01:37:29.344Z,13.78
2018-04-22T01:38:29.128Z,13.85
2018-04-22T01:39:29.118Z,13.70
2018-04-22T01:40:29.336Z,13.65
2018-04-22T01:41:29.117Z,13.59
2018-04-22T01:42:29.117Z,13.53
2018-04-22T01:43:29.121Z,13.52
2018-04-22T01:44:29.124Z,13.47
2018-04-22T01:45:29.325Z,13.42
2018-04-22T01:46:29.121Z,13.44
2018-04-22T01:47:29.115Z,13.31
2018-04-22T01:48:29.124Z,13.27
2018-04-22T01:49:29.111Z,13.23
2018-04-22T01:50:29.121Z,13.28
2018-04-22T01:51:29.110Z,13.22
2018-04-22T01:52:29.108Z,13.33
2018-04-22T01:53:29.119Z,13.30
2018-04-22T01:54:29.103Z,13.33
2018-04-22T01:55:29.315Z,13.39
2018-04-22T01:56:29.106Z,13.33
2018-04-22T01:57:29.099Z,13.27
2018-04-22T01:58:29.114Z,13.22
2018-04-22T01:59:29.303Z,13.27
2018-04-22T02:00:29.297Z,13.22
2018-04-22T02:01:29.093Z,13.20
2018-04-22T02:02:29.092Z,13.15
2018-04-22T02:03:29.091Z,13.19
2018-04-22T02:04:29.099Z,13.25
2018-04-22T02:05:29.116Z,13.13
2018-04-22T02:06:29.086Z,13.09
2018-04-22T02:07:29.086Z,12.98
2018-04-22T02:08:29.084Z,12.95
2018-04-22T02:09:29.103Z,13.00
2018-04-22T02:10:29.081Z,12.94
2018-04-22T02:11:29.090Z,12.94
2018-04-22T02:12:29.283Z,12.93
2018-04-22T02:13:29.080Z,12.94
2018-04-22T02:14:29.074Z,12.86
2018-04-22T02:15:29.074Z,12.91
2018-04-22T02:16:29.086Z,12.82
2018-04-22T02:17:29.095Z,12.95
2018-04-22T02:18:29.333Z,12.91
2018-04-22T02:19:29.081Z,12.87
2018-04-22T02:20:29.283Z,12.93
2018-04-22T02:21:29.074Z,12.87
2018-04-22T02:22:29.068Z,12.90
2018-04-22T02:23:29.520Z,12.82
2018-04-22T02:24:29.090Z,12.83
2018-04-22T02:25:29.061Z,12.93
2018-04-22T02:26:29.063Z,12.79
2018-04-22T02:27:29.074Z,12.78
2018-04-22T02:28:29.082Z,12.78
2018-04-22T02:29:29.072Z,12.80
2018-04-22T02:30:29.054Z,12.78
2018-04-22T02:31:29.257Z,12.76
2018-04-22T02:32:29.051Z,12.67
2018-04-22T02:33:29.067Z,12.72
2018-04-22T02:34:29.250Z,12.76
2018-04-22T02:35:29.258Z,12.80
2018-04-22T02:36:29.047Z,12.86
2018-04-22T02:37:29.047Z,12.78
2018-04-22T02:38:29.044Z,12.90
2018-04-22T02:39:29.248Z,12.95
2018-04-22T02:40:29.251Z,12.82
2018-04-22T02:41:29.077Z,12.85
2018-04-22T02:42:29.039Z,12.82
2018-04-22T02:43:29.076Z,12.83
2018-04-22T02:44:29.047Z,12.95
2018-04-22T02:45:29.040Z,12.87
2018-04-22T02:46:29.234Z,12.85
2018-04-22T02:47:29.031Z,12.86
2018-04-22T02:48:29.047Z,12.83
2018-04-22T02:49:29.029Z,12.80
2018-04-22T02:50:29.093Z,12.85
2018-04-22T02:51:29.022Z,12.83
2018-04-22T02:52:29.223Z,12.82
2018-04-22T02:53:29.030Z,12.85
2018-04-22T02:54:29.022Z,12.76
2018-04-22T02:55:29.221Z,12.79
2018-04-22T02:56:29.041Z,12.95
2018-04-22T02:57:29.216Z,12.85
2018-04-22T02:58:29.027Z,12.91
2018-04-22T02:59:29.021Z,12.80
2018-04-22T03:00:29.020Z,12.85
2018-04-22T03:01:29.005Z,12.86
2018-04-22T03:02:29.005Z,12.93
2018-04-22T03:03:29.218Z,12.85
2018-04-22T03:04:29.001Z,12.82
2018-04-22T03:05:29.206Z,12.85
2018-04-22T03:06:29.000Z,12.93
2018-04-22T03:07:29.022Z,12.85
2018-04-22T03:08:29.005Z,12.83
2018-04-22T03:09:28.994Z,12.93
2018-04-22T03:10:28.993Z,12.90
2018-04-22T03:11:28.990Z,12.90
2018-04-22T03:12:28.989Z,12.90
2018-04-22T03:13:28.996Z,12.82
2018-04-22T03:14:28.988Z,12.80
2018-04-22T03:15:28.990Z,12.86
2018-04-22T03:16:28.991Z,12.87
2018-04-22T03:17:29.190Z,12.80
2018-04-22T03:18:29.204Z,12.86
2018-04-22T03:19:28.994Z,12.83
2018-04-22T03:20:28.987Z,12.90
2018-04-22T03:21:28.977Z,12.83
2018-04-22T03:22:29.179Z,12.78
2018-04-22T03:23:29.180Z,12.76
2018-04-22T03:24:29.180Z,12.76
2018-04-22T03:25:28.981Z,12.76
2018-04-22T03:26:29.189Z,12.75
2018-04-22T03:27:28.982Z,12.78
2018-04-22T03:28:28.965Z,12.90
2018-04-22T03:29:28.964Z,12.80
2018-04-22T03:30:28.979Z,12.85
2018-04-22T03:31:29.173Z,12.87
2018-04-22T03:32:28.964Z,12.76
2018-04-22T03:33:29.181Z,12.90
2018-04-22T03:34:28.964Z,12.85
2018-04-22T03:35:28.969Z,12.78
2018-04-22T03:36:28.965Z,12.73
2018-04-22T03:37:29.157Z,12.78
2018-04-22T03:38:28.948Z,12.64
2018-04-22T03:39:28.945Z,12.64
2018-04-22T03:40:28.960Z,12.65
2018-04-22T03:41:28.944Z,12.60
2018-04-22T03:42:29.015Z,12.61
2018-04-22T03:43:29.147Z,12.50
2018-04-22T03:44:28.962Z,12.49
2018-04-22T03:45:28.936Z,12.39
2018-04-22T03:46:29.165Z,12.40
2018-04-22T03:47:28.930Z,12.42
2018-04-22T03:48:28.951Z,12.37
2018-04-22T03:49:29.166Z,12.25
2018-04-22T03:50:28.925Z,12.28
2018-04-22T03:51:28.938Z,12.21
2018-04-22T03:52:29.141Z,12.24
2018-04-22T03:53:28.926Z,12.24
2018-04-22T03:54:28.933Z,12.22
2018-04-22T03:55:28.946Z,12.25
2018-04-22T03:56:28.918Z,12.27
2018-04-22T03:57:28.924Z,12.20
2018-04-22T03:58:28.916Z,12.24
2018-04-22T03:59:28.924Z,12.17
2018-04-22T04:00:29.128Z,12.15
2018-04-22T04:01:28.924Z,12.12
2018-04-22T04:02:29.123Z,12.17
2018-04-22T04:03:29.133Z,12.12
2018-04-22T04:04:28.906Z,12.13
2018-04-22T04:05:28.917Z,12.10
2018-04-22T04:06:29.118Z,12.15
2018-04-22T04:07:28.905Z,12.10
2018-04-22T04:08:28.914Z,12.10
2018-04-22T04:09:29.104Z,12.02
2018-04-22T04:10:28.902Z,12.03
2018-04-22T04:11:29.108Z,12.07
2018-04-22T04:12:28.901Z,12.03
2018-04-22T04:13:28.891Z,11.94
2018-04-22T04:14:28.900Z,11.97
2018-04-22T04:15:28.896Z,11.94
2018-04-22T04:16:28.882Z,11.91
2018-04-22T04:17:28.883Z,12.03
2018-04-22T04:18:29.089Z,11.94
2018-04-22T04:19:28.891Z,11.97
2018-04-22T04:20:29.096Z,12.09
2018-04-22T04:21:28.886Z,12.03
2018-04-22T04:22:28.870Z,12.02
2018-04-22T04:23:28.894Z,12.03
2018-04-22T04:24:29.090Z,12.00
2018-04-22T04:25:28.867Z,12.03
2018-04-22T04:26:28.866Z,11.94
2018-04-22T04:27:29.088Z,11.95
2018-04-22T04:28:28.887Z,11.97
2018-04-22T04:29:28.873Z,11.78
2018-04-22T04:30:28.856Z,12.02
2018-04-22T04:31:28.882Z,11.95
2018-04-22T04:32:28.853Z,11.94
2018-04-22T04:33:28.863Z,11.99
2018-04-22T04:34:29.075Z,11.94
2018-04-22T04:35:28.858Z,11.99
2018-04-22T04:36:29.060Z,12.03
2018-04-22T04:37:28.871Z,12.06
2018-04-22T04:38:28.842Z,12.02
2018-04-22T04:39:28.841Z,12.09
2018-04-22T04:40:28.849Z,12.13
2018-04-22T04:41:29.042Z,12.12
2018-04-22T04:42:29.066Z,12.12
2018-04-22T04:43:28.871Z,12.17
2018-04-22T04:44:28.844Z,12.20
2018-04-22T04:45:28.841Z,12.18
2018-04-22T04:46:29.058Z,12.09
2018-04-22T04:47:28.842Z,12.15
2018-04-22T04:48:28.853Z,12.09
2018-04-22T04:49:28.847Z,12.13
2018-04-22T04:50:29.049Z,12.13
2018-04-22T04:51:28.839Z,12.15
2018-04-22T04:52:29.033Z,12.17
2018-04-22T04:53:28.845Z,12.18
2018-04-22T04:54:28.839Z,12.15
2018-04-22T04:55:28.812Z,12.12
2018-04-22T04:56:28.838Z,12.15
2018-04-22T04:57:29.013Z,12.20
2018-04-22T04:58:28.825Z,12.22
2018-04-22T04:59:28.814Z,12.27
2018-04-22T05:00:29.006Z,12.39
2018-04-22T05:01:28.827Z,12.37
2018-04-22T05:02:28.811Z,12.55
2018-04-22T05:03:28.806Z,12.64
2018-04-22T05:04:28.820Z,12.64
2018-04-22T05:05:28.816Z,12.61
2018-04-22T05:06:28.813Z,12.64
2018-04-22T05:07:28.787Z,12.67
2018-04-22T05:08:28.787Z,12.73
2018-04-22T05:09:28.799Z,12.64
2018-04-22T05:10:29.000Z,12.76
2018-04-22T05:11:28.783Z,12.82
2018-04-22T05:12:28.776Z,12.93
2018-04-22T05:13:28.791Z,12.83
2018-04-22T05:14:28.778Z,12.91
2018-04-22T05:15:28.772Z,12.94
2018-04-22T05:16:28.814Z,13.01
2018-04-22T05:17:28.781Z,13.09
2018-04-22T05:18:28.794Z,13.19
2018-04-22T05:19:28.794Z,13.23
2018-04-22T05:20:28.776Z,13.28
2018-04-22T05:21:28.789Z,13.35
2018-04-22T05:22:28.762Z,13.37
2018-04-22T05:23:28.784Z,13.37
2018-04-22T05:24:28.778Z,13.38
2018-04-22T05:25:28.781Z,13.52
2018-04-22T05:26:28.776Z,13.44
2018-04-22T05:27:28.956Z,13.41
2018-04-22T05:28:28.755Z,13.50
2018-04-22T05:29:28.762Z,13.50
2018-04-22T05:30:28.759Z,13.49
2018-04-22T05:31:28.757Z,13.52
2018-04-22T05:32:28.961Z,13.68
2018-04-22T05:33:28.768Z,13.71
2018-04-22T05:34:28.958Z,13.77
2018-04-22T05:35:28.753Z,13.81
2018-04-22T05:36:28.970Z,13.81
2018-04-22T05:37:28.941Z,13.87
2018-04-22T05:38:28.745Z,13.86
2018-04-22T05:39:28.761Z,13.96
2018-04-22T05:40:28.746Z,14.00
2018-04-22T05:41:28.747Z,14.11
2018-04-22T05:42:28.739Z,14.10
2018-04-22T05:43:28.730Z,14.10
2018-04-22T05:44:28.740Z,14.23
2018-04-22T05:45:28.736Z,14.18
2018-04-22T05:46:28.749Z,14.32
2018-04-22T05:47:28.724Z,14.28
2018-04-22T05:48:28.924Z,14.43
2018-04-22T05:49:28.719Z,14.48
2018-04-22T05:50:28.727Z,14.53
2018-04-22T05:51:28.715Z,14.51
2018-04-22T05:52:28.924Z,14.55
2018-04-22T05:53:28.716Z,14.68
2018-04-22T05:54:28.724Z,14.73
2018-04-22T05:55:28.733Z,14.77
2018-04-22T05:56:28.743Z,14.77
2018-04-22T05:57:28.727Z,14.86
2018-04-22T05:58:28.922Z,14.89
2018-04-22T05:59:28.708Z,15.02
2018-04-22T06:00:28.718Z,15.02
2018-04-22T06:01:28.737Z,15.03
2018-04-22T06:02:28.712Z,15.07
2018-04-22T06:03:28.928Z,15.14
2018-04-22T06:04:28.716Z,15.19
2018-04-22T06:05:28.721Z,15.24
2018-04-22T06:06:28.706Z,15.37
2018-04-22T06:07:28.698Z,15.39
2018-04-22T06:08:28.710Z,15.40
2018-04-22T06:09:28.717Z,15.47
2018-04-22T06:10:28.709Z,15.59
2018-04-22T06:11:28.694Z,15.62
2018-04-22T06:12:28.896Z,15.65
2018-04-22T06:13:28.703Z,15.80
2018-04-22T06:14:28.704Z,15.80
2018-04-22T06:15:28.916Z,15.73
2018-04-22T06:16:28.693Z,15.83
2018-04-22T06:17:28.718Z,15.92
2018-04-22T06:18:28.712Z,15.95
2018-04-22T06:19:28.701Z,16.04
2018-04-22T06:20:28.699Z,16.09
2018-04-22T06:21:28.696Z,16.17
2018-04-22T06:22:28.709Z,16.24
2018-04-22T06:23:28.694Z,16.33
2018-04-22T06:24:28.683Z,16.31
2018-04-22T06:25:28.714Z,16.31
2018-04-22T06:26:28.693Z,16.43
2018-04-22T06:27:28.682Z,16.43
2018-04-22T06:28:28.679Z,16.43
2018-04-22T06:29:28.679Z,16.60
2018-04-22T06:30:28.691Z,16.66
2018-04-22T06:31:28.676Z,16.86
2018-04-22T06:32:28.678Z,16.96
2018-04-22T06:33:28.678Z,17.12
2018-04-22T06:34:28.684Z,17.20
2018-04-22T06:35:28.674Z,17.29
2018-04-22T06:36:28.676Z,17.38
2018-04-22T06:37:28.679Z,17.46
2018-04-22T06:38:28.695Z,17.52
2018-04-22T06:39:28.710Z,17.65
2018-04-22T06:40:28.712Z,17.83
2018-04-22T06:41:28.890Z,18.00
2018-04-22T06:42:28.688Z,18.10
2018-04-22T06:43:28.683Z,18.20
2018-04-22T06:44:28.686Z,18.37
2018-04-22T06:45:28.688Z,18.50
2018-04-22T06:46:28.705Z,18.56
2018-04-22T06:47:28.693Z,18.65
2018-04-22T06:48:28.674Z,18.80
2018-04-22T06:49:28.684Z,18.93
2018-04-22T06:50:28.674Z,18.95
2018-04-22T06:51:28.670Z,19.08
2018-04-22T06:52:28.684Z,19.12
2018-04-22T06:53:28.698Z,19.29
2018-04-22T06:54:28.668Z,19.37
2018-04-22T06:55:28.690Z,19.44
2018-04-22T06:56:28.687Z,19.47
2018-04-22T06:57:28.700Z,19.62
2018-04-22T06:58:28.673Z,19.58
2018-04-22T06:59:28.698Z,19.59
2018-04-22T07:00:28.672Z,19.64
2018-04-22T07:01:28.683Z,19.74
2018-04-22T07:02:28.682Z,19.73
2018-04-22T07:03:28.674Z,19.73
2018-04-22T07:04:28.675Z,19.85
2018-04-22T07:05:28.715Z,19.91
2018-04-22T07:06:28.903Z,19.81
2018-04-22T07:07:28.711Z,19.88
2018-04-22T07:08:28.697Z,19.95
2018-04-22T07:09:28.676Z,19.92
2018-04-22T07:10:28.688Z,20.03
2018-04-22T07:11:28.705Z,19.99
2018-04-22T07:12:28.679Z,20.03
2018-04-22T07:13:28.703Z,20.11
2018-04-22T07:14:28.691Z,20.14
2018-04-22T07:15:28.678Z,20.21
2018-04-22T07:16:28.894Z,20.24
2018-04-22T07:17:28.694Z,20.36
2018-04-22T07:18:28.694Z,20.39
2018-04-22T07:19:28.904Z,20.44
2018-04-22T07:20:28.885Z,20.55
2018-04-22T07:21:28.685Z,20.65
2018-04-22T07:22:28.693Z,20.80
2018-04-22T07:23:28.687Z,20.96
2018-04-22T07:24:28.688Z,21.05
2018-04-22T07:25:28.902Z,21.17
2018-04-22T07:26:28.686Z,21.29
2018-04-22T07:27:28.913Z,21.35
2018-04-22T07:28:28.690Z,21.58
2018-04-22T07:29:28.697Z,21.66
2018-04-22T07:30:28.689Z,21.82
2018-04-22T07:31:28.701Z,21.89
2018-04-22T07:32:28.690Z,21.88
2018-04-22T07:33:28.908Z,22.06
2018-04-22T07:34:28.692Z,22.10
2018-04-22T07:35:28.728Z,22.06
2018-04-22T07:36:28.716Z,22.00
2018-04-22T07:37:28.699Z,21.99
2018-04-22T07:38:28.695Z,21.92
2018-04-22T07:39:28.912Z,21.98
2018-04-22T07:40:28.702Z,21.91
2018-04-22T07:41:28.709Z,22.00
2018-04-22T07:42:28.736Z,21.96
2018-04-22T07:43:28.906Z,21.98
2018-04-22T07:44:28.712Z,21.99
2018-04-22T07:45:28.718Z,21.91
2018-04-22T07:46:28.706Z,22.14
2018-04-22T07:47:28.706Z,22.15
2018-04-22T07:48:28.723Z,22.14
2018-04-22T07:49:28.722Z,22.11
2018-04-22T07:50:28.708Z,22.02
2018-04-22T07:51:28.725Z,22.00
2018-04-22T07:52:28.711Z,21.93
2018-04-22T07:53:28.774Z,21.98
2018-04-22T07:54:28.714Z,21.92
2018-04-22T07:55:28.724Z,21.95
2018-04-22T07:56:28.727Z,21.92
2018-04-22T07:57:28.727Z,21.91
2018-04-22T07:58:28.732Z,21.92
2018-04-22T07:59:28.724Z,21.93
2018-04-22T08:00:28.721Z,22.02
2018-04-22T08:01:28.724Z,21.88
2018-04-22T08:02:28.724Z,22.04
2018-04-22T08:03:28.931Z,22.11
2018-04-22T08:04:28.777Z,22.07
2018-04-22T08:05:28.753Z,22.11
2018-04-22T08:06:28.731Z,22.07
2018-04-22T08:07:28.733Z,22.14
2018-04-22T08:08:28.746Z,22.15
2018-04-22T08:09:28.961Z,22.18
2018-04-22T08:10:28.747Z,22.28
2018-04-22T08:11:28.740Z,22.36
2018-04-22T08:12:28.752Z,22.44
2018-04-22T08:13:28.768Z,22.43
2018-04-22T08:14:28.742Z,22.51
2018-04-22T08:15:28.949Z,22.50
2018-04-22T08:16:28.748Z,22.54
2018-04-22T08:17:28.753Z,22.51
2018-04-22T08:18:28.760Z,22.48
2018-04-22T08:19:28.757Z,22.54
2018-04-22T08:20:28.972Z,22.60
2018-04-22T08:21:28.770Z,22.70
2018-04-22T08:22:28.965Z,22.73
2018-04-22T08:23:28.986Z,22.80
2018-04-22T08:24:28.773Z,22.85
2018-04-22T08:25:28.780Z,23.05
2018-04-22T08:26:28.980Z,23.06
2018-04-22T08:27:28.770Z,23.20
2018-04-22T08:28:28.801Z,23.27
2018-04-22T08:29:28.784Z,23.40
2018-04-22T08:30:28.785Z,23.73
2018-04-22T08:31:28.788Z,23.81
2018-04-22T08:32:28.985Z,24.01
2018-04-22T08:33:28.782Z,24.05
2018-04-22T08:34:29.002Z,23.86
2018-04-22T08:35:28.786Z,23.83
2018-04-22T08:36:29.013Z,23.81
2018-04-22T08:37:28.802Z,23.66
2018-04-22T08:38:28.998Z,23.63
2018-04-22T08:39:28.811Z,23.69
2018-04-22T08:40:29.014Z,23.78
2018-04-22T08:41:29.021Z,23.78
2018-04-22T08:42:28.812Z,23.76
2018-04-22T08:43:28.822Z,23.92
2018-04-22T08:44:28.811Z,24.06
2018-04-22T08:45:28.814Z,24.23
2018-04-22T08:46:28.815Z,24.17
2018-04-22T08:47:28.822Z,24.23
2018-04-22T08:48:28.854Z,24.28
2018-04-22T08:49:28.850Z,24.39
2018-04-22T08:50:28.843Z,24.47
2018-04-22T08:51:28.850Z,24.45
2018-04-22T08:52:29.076Z,24.73
2018-04-22T08:53:28.859Z,24.58
2018-04-22T08:54:29.078Z,24.76
2018-04-22T08:55:28.866Z,24.60
2018-04-22T08:56:28.896Z,24.89
2018-04-22T08:57:28.885Z,25.04
2018-04-22T08:58:28.870Z,25.50
2018-04-22T08:59:28.873Z,26.05
2018-04-22T09:00:28.891Z,26.47
2018-04-22T09:01:28.885Z,26.77
2018-04-22T09:02:28.888Z,26.88
2018-04-22T09:03:28.903Z,26.95
2018-04-22T09:04:28.920Z,26.92
2018-04-22T09:05:28.937Z,27.11
2018-04-22T09:06:28.901Z,27.48
2018-04-22T09:07:28.945Z,27.80
2018-04-22T09:08:28.920Z,27.98
2018-04-22T09:09:29.122Z,28.25
2018-04-22T09:10:28.917Z,28.29
2018-04-22T09:11:28.932Z,28.41
2018-04-22T09:12:28.928Z,28.72
2018-04-22T09:13:28.926Z,28.69
2018-04-22T09:14:28.945Z,28.66
2018-04-22T09:15:28.957Z,28.76
2018-04-22T09:16:28.975Z,28.63
2018-04-22T09:17:28.941Z,28.33
2018-04-22T09:18:28.951Z,28.01
2018-04-22T09:19:28.946Z,27.58
2018-04-22T09:20:28.948Z,27.18
2018-04-22T09:21:28.964Z,26.34
2018-04-22T09:22:28.969Z,25.93
2018-04-22T09:23:28.956Z,25.35
2018-04-22T09:24:28.984Z,24.93
2018-04-22T09:25:28.970Z,24.61
2018-04-22T09:26:28.966Z,24.38
2018-04-22T09:27:28.967Z,24.06
2018-04-22T09:28:28.981Z,23.78
2018-04-22T09:29:28.975Z,23.47
2018-04-22T09:30:28.987Z,23.36
2018-04-22T09:31:28.980Z,23.32
2018-04-22T09:32:28.994Z,23.05
2018-04-22T09:33:28.997Z,22.99
2018-04-22T09:34:28.984Z,22.84
2018-04-22T09:35:28.986Z,22.73
2018-04-22T09:36:28.990Z,22.63
2018-04-22T09:37:28.996Z,22.80
2018-04-22T09:38:29.012Z,22.93
2018-04-22T09:39:28.999Z,23.08
2018-04-22T09:40:29.004Z,23.47
2018-04-22T09:41:29.015Z,23.83
2018-04-22T09:42:29.004Z,23.96
2018-04-22T09:43:29.030Z,23.78
2018-04-22T09:44:29.022Z,23.71
2018-04-22T09:45:29.055Z,23.46
2018-04-22T09:46:29.028Z,23.36
2018-04-22T09:47:29.015Z,23.37
2018-04-22T09:48:29.034Z,23.41
2018-04-22T09:49:29.036Z,23.28
2018-04-22T09:50:29.025Z,23.47
2018-04-22T09:51:29.026Z,23.74
2018-04-22T09:52:29.028Z,24.08
2018-04-22T09:53:29.043Z,23.87
2018-04-22T09:54:29.058Z,24.08
2018-04-22T09:55:29.032Z,23.96
2018-04-22T09:56:29.043Z,23.69
2018-04-22T09:57:29.066Z,23.62
2018-04-22T09:58:29.054Z,23.62
2018-04-22T09:59:29.061Z,23.40
2018-04-22T10:00:29.062Z,23.28
2018-04-22T10:01:29.060Z,23.25
2018-04-22T10:02:29.066Z,23.20
2018-04-22T10:03:29.077Z,23.05
2018-04-22T10:04:29.072Z,22.98
2018-04-22T10:05:29.058Z,23.02
2018-04-22T10:06:29.074Z,22.96
2018-04-22T10:07:29.067Z,22.99
2018-04-22T10:08:29.080Z,22.96
2018-04-22T10:09:29.078Z,22.99
2018-04-22T10:10:29.083Z,22.91
2018-04-22T10:11:29.093Z,22.85
2018-04-22T10:12:29.096Z,22.78
2018-04-22T10:13:29.080Z,22.76
2018-04-22T10:14:29.078Z,22.69
2018-04-22T10:15:29.082Z,22.91
2018-04-22T10:16:29.130Z,23.00
2018-04-22T10:17:29.111Z,22.90
2018-04-22T10:18:29.098Z,22.90
2018-04-22T10:19:29.089Z,22.76
2018-04-22T10:20:29.091Z,22.72
2018-04-22T10:21:29.114Z,22.75
2018-04-22T10:22:29.107Z,22.69
2018-04-22T10:23:29.108Z,22.53
2018-04-22T10:24:29.099Z,22.48
2018-04-22T10:25:29.114Z,22.50
2018-04-22T10:26:29.120Z,22.47
2018-04-22T10:27:29.106Z,22.62
2018-04-22T10:28:29.127Z,22.55
2018-04-22T10:29:29.110Z,22.55
2018-04-22T10:30:29.123Z,22.60
2018-04-22T10:31:29.128Z,22.66
2018-04-22T10:32:29.140Z,22.65
2018-04-22T10:33:29.143Z,22.68
2018-04-22T10:34:29.135Z,22.59
2018-04-22T10:35:29.125Z,22.60
2018-04-22T10:36:29.135Z,22.68
2018-04-22T10:37:29.149Z,22.66
2018-04-22T10:38:29.141Z,22.78
2018-04-22T10:39:29.143Z,22.70
2018-04-22T10:40:29.147Z,22.65
2018-04-22T10:41:29.137Z,22.63
2018-04-22T10:42:29.146Z,22.66
2018-04-22T10:43:29.149Z,22.70
2018-04-22T10:44:29.141Z,22.70
2018-04-22T10:45:29.145Z,22.94
2018-04-22T10:46:29.352Z,23.06
2018-04-22T10:47:29.151Z,23.20
2018-04-22T10:48:29.162Z,23.31
2018-04-22T10:49:29.154Z,23.36
2018-04-22T10:50:29.165Z,23.63
2018-04-22T10:51:29.177Z,23.81
2018-04-22T10:52:29.160Z,23.93
2018-04-22T10:53:29.164Z,24.03
2018-04-22T10:54:29.171Z,24.16
2018-04-22T10:55:29.178Z,24.18
2018-04-22T10:56:29.168Z,24.18
2018-04-22T10:57:29.168Z,24.21
2018-04-22T10:58:29.205Z,24.18
2018-04-22T10:59:29.171Z,24.20
2018-04-22T11:00:29.190Z,24.20
2018-04-22T11:01:29.181Z,24.23
2018-04-22T11:02:29.178Z,24.23
2018-04-22T11:03:29.203Z,24.16
2018-04-22T11:04:29.184Z,24.18
2018-04-22T11:05:29.248Z,24.17
2018-04-22T11:06:29.185Z,24.23
2018-04-22T11:07:29.200Z,24.08
2018-04-22T11:08:29.208Z,24.02
2018-04-22T11:09:29.196Z,24.02
2018-04-22T11:10:29.204Z,24.01
2018-04-22T11:11:29.214Z,24.05
2018-04-22T11:12:29.408Z,24.03
2018-04-22T11:13:29.205Z,23.92
2018-04-22T11:14:29.408Z,23.77
2018-04-22T11:15:29.230Z,23.59
2018-04-22T11:16:29.226Z,23.55
2018-04-22T11:17:29.256Z,23.48
2018-04-22T11:18:29.215Z,23.37
2018-04-22T11:19:29.229Z,23.39
2018-04-22T11:20:29.231Z,23.31
2018-04-22T11:21:29.426Z,23.17
2018-04-22T11:22:29.235Z,23.05
2018-04-22T11:23:29.444Z,23.06
2018-04-22T11:24:29.239Z,22.94
2018-04-22T11:25:29.231Z,22.98
2018-04-22T11:26:29.234Z,22.91
2018-04-22T11:27:29.234Z,23.03
2018-04-22T11:28:29.236Z,22.96
2018-04-22T11:29:29.251Z,23.03
2018-04-22T11:30:29.242Z,22.99
2018-04-22T11:31:29.247Z,23.09
2018-04-22T11:32:29.247Z,23.13
2018-04-22T11:33:29.271Z,23.12
2018-04-22T11:34:29.249Z,23.23
2018-04-22T11:35:29.462Z,23.20
2018-04-22T11:36:29.267Z,23.21
2018-04-22T11:37:29.269Z,23.55
2018-04-22T11:38:29.269Z,23.80
2018-04-22T11:39:29.260Z,23.84
2018-04-22T11:40:29.273Z,23.96
2018-04-22T11:41:29.280Z,23.87
2018-04-22T11:42:29.270Z,23.84
2018-04-22T11:43:29.273Z,23.69
2018-04-22T11:44:29.301Z,23.44
2018-04-22T11:45:29.288Z,23.41
2018-04-22T11:46:29.302Z,23.20
2018-04-22T11:47:29.289Z,23.08
2018-04-22T11:48:29.310Z,23.10
2018-04-22T11:49:29.308Z,23.17
2018-04-22T11:50:29.287Z,23.24
2018-04-22T11:51:29.288Z,23.17
2018-04-22T11:52:29.289Z,23.40
2018-04-22T11:53:29.301Z,23.77
2018-04-22T11:54:29.307Z,23.81
2018-04-22T11:55:29.299Z,23.86
2018-04-22T11:56:29.302Z,24.14
2018-04-22T11:57:29.315Z,24.18
2018-04-22T11:58:29.304Z,24.29
2018-04-22T11:59:29.317Z,24.54
2018-04-22T12:00:29.319Z,24.61
2018-04-22T12:01:29.312Z,24.48
2018-04-22T12:02:29.348Z,24.29
2018-04-22T12:03:29.316Z,24.28
2018-04-22T12:04:29.329Z,24.20
2018-04-22T12:05:29.522Z,24.10
2018-04-22T12:06:29.339Z,23.88
2018-04-22T12:07:29.334Z,23.71
2018-04-22T12:08:29.324Z,23.92
2018-04-22T12:09:29.332Z,23.95
2018-04-22T12:10:29.341Z,23.86
2018-04-22T12:11:29.345Z,23.81
2018-04-22T12:12:29.351Z,23.63
2018-04-22T12:13:29.338Z,23.65
2018-04-22T12:14:29.356Z,23.69
2018-04-22T12:15:29.566Z,23.93
2018-04-22T12:16:29.357Z,23.95
2018-04-22T12:17:29.577Z,23.91
2018-04-22T12:18:29.363Z,23.78
2018-04-22T12:19:29.357Z,23.81
2018-04-22T12:20:29.393Z,23.66
2018-04-22T12:21:29.377Z,23.61
2018-04-22T12:22:29.369Z,23.68
2018-04-22T12:23:29.569Z,23.56
2018-04-22T12:24:29.364Z,23.51
2018-04-22T12:25:29.366Z,23.47
2018-04-22T12:26:29.390Z,23.58
2018-04-22T12:27:29.586Z,23.54
2018-04-22T12:28:29.387Z,23.47
2018-04-22T12:29:29.396Z,23.41
2018-04-22T12:30:29.390Z,23.47
2018-04-22T12:31:29.622Z,23.46
2018-04-22T12:32:29.398Z,23.56
2018-04-22T12:33:29.390Z,23.56
2018-04-22T12:34:29.402Z,23.63
2018-04-22T12:35:29.413Z,23.59
2018-04-22T12:36:29.400Z,23.61
2018-04-22T12:37:29.397Z,23.63
2018-04-22T12:38:29.409Z,23.80
2018-04-22T12:39:29.402Z,23.71
2018-04-22T12:40:29.402Z,23.78
2018-04-22T12:41:29.403Z,23.77
2018-04-22T12:42:29.430Z,23.77
2018-04-22T12:43:29.410Z,23.71
2018-04-22T12:44:29.412Z,23.73
2018-04-22T12:45:29.617Z,23.54
2018-04-22T12:46:29.437Z,23.56
2018-04-22T12:47:29.418Z,23.40
2018-04-22T12:48:29.625Z,23.36
2018-04-22T12:49:29.436Z,23.28
2018-04-22T12:50:29.437Z,23.36
2018-04-22T12:51:29.439Z,23.23
2018-04-22T12:52:29.467Z,23.08